createdAt,value
2018-11-05T00:00:20.785Z,92.93
2018-11-05T00:02:51.363Z,84.43
2018-11-05T00:05:21.262Z,86.23
2018-11-05T00:07:50.829Z,83.97
2018-11-05T00:10:20.168Z,81.13
2018-11-05T00:12:49.977Z,75.97
2018-11-05T00:15:19.245Z,86.33
2018-11-05T00:17:48.544Z,83.73
2018-11-05T00:20:17.896Z,83.33
2018-11-05T00:22:47.175Z,83.40
2018-11-05T00:25:16.460Z,82.40
2018-11-05T00:27:45.857Z,81.47
2018-11-05T00:30:15.636Z,80.87
2018-11-05T00:32:45.074Z,82.23
2018-11-05T00:35:21.070Z,84.80
2018-11-05T00:37:50.338Z,106.13
2018-11-05T00:40:19.748Z,82.80
2018-11-05T00:42:49.031Z,87.13
2018-11-05T00:45:18.360Z,82.73
2018-11-05T00:47:48.268Z,87.40
2018-11-05T00:50:17.707Z,87.70
2018-11-05T00:52:47.136Z,89.70
2018-11-05T00:55:16.436Z,89.90
2018-11-05T00:57:45.678Z,86.70
2018-11-05T01:00:16.294Z,87.70
2018-11-05T01:02:46.023Z,90.43
2018-11-05T01:05:16.429Z,79.77
2018-11-05T01:07:46.315Z,84.07
2018-11-05T01:10:16.492Z,86.13
2018-11-05T01:12:45.777Z,85.33
2018-11-05T01:15:17.126Z,90.07
2018-11-05T01:17:46.369Z,77.40
2018-11-05T01:20:16.214Z,81.20
2018-11-05T01:22:45.500Z,77.57
2018-11-05T01:25:14.851Z,69.77
2018-11-05T01:27:44.125Z,69.17
2018-11-05T01:30:14.020Z,68.83
2018-11-05T01:32:43.392Z,69.73
2018-11-05T01:35:13.572Z,73.33
2018-11-05T01:37:43.047Z,72.60
2018-11-05T01:40:14.515Z,72.90
2018-11-05T01:42:44.290Z,71.43
2018-11-05T01:45:14.548Z,74.53
2018-11-05T01:47:44.430Z,74.00
2018-11-05T01:50:15.204Z,75.27
2018-11-05T01:52:45.178Z,74.37
2018-11-05T01:55:14.453Z,75.30
2018-11-05T01:57:44.503Z,76.87
2018-11-05T02:00:15.658Z,75.40
2018-11-05T02:02:45.904Z,74.70
2018-11-05T02:05:15.171Z,75.83
2018-11-05T02:07:45.383Z,74.43
2018-11-05T02:10:16.060Z,75.23
2018-11-05T02:12:45.233Z,74.27
2018-11-05T02:15:14.766Z,74.40
2018-11-05T02:17:45.268Z,73.47
2018-11-05T02:20:15.487Z,76.77
2018-11-05T02:22:44.856Z,72.90
2018-11-05T02:25:14.599Z,75.43
2018-11-05T02:27:44.410Z,74.90
2018-11-05T02:30:18.408Z,74.33
2018-11-05T02:32:48.275Z,77.47
2018-11-05T02:35:18.134Z,75.90
2018-11-05T02:37:48.076Z,77.63
2018-11-05T02:40:18.798Z,76.37
2018-11-05T02:42:48.660Z,76.60
2018-11-05T02:45:18.839Z,74.73
2018-11-05T02:47:48.228Z,72.83
2018-11-05T02:50:17.631Z,73.30
2018-11-05T02:52:47.464Z,74.60
2018-11-05T02:55:16.728Z,71.57
2018-11-05T02:57:46.031Z,74.07
2018-11-05T03:00:17.526Z,72.63
2018-11-05T03:02:46.785Z,73.27
2018-11-05T03:05:17.340Z,71.73
2018-11-05T03:07:47.449Z,73.47
2018-11-05T03:10:16.894Z,72.67
2018-11-05T03:12:47.480Z,72.73
2018-11-05T03:15:17.819Z,71.97
2018-11-05T03:17:47.098Z,72.63
2018-11-05T03:20:16.850Z,73.30
2018-11-05T03:22:46.382Z,75.90
2018-11-05T03:25:15.686Z,73.30
2018-11-05T03:27:44.934Z,75.50
2018-11-05T03:30:17.735Z,74.90
2018-11-05T03:32:47.296Z,73.40
2018-11-05T03:35:16.673Z,70.77
2018-11-05T03:37:46.731Z,69.53
2018-11-05T03:40:16.790Z,70.00
2018-11-05T03:42:46.080Z,71.20
2018-11-05T03:45:16.390Z,70.07
2018-11-05T03:47:46.020Z,70.03
2018-11-05T03:50:16.739Z,70.13
2018-11-05T03:52:46.787Z,73.00
2018-11-05T03:55:17.003Z,71.90
2018-11-05T03:57:46.310Z,69.13
2018-11-05T04:00:17.419Z,71.77
2018-11-05T04:02:46.721Z,71.80
2018-11-05T04:05:16.012Z,71.97
2018-11-05T04:07:46.043Z,70.50
2018-11-05T04:10:15.319Z,72.13
2018-11-05T04:12:44.611Z,71.67
2018-11-05T04:15:13.926Z,70.37
2018-11-05T04:17:43.277Z,69.83
2018-11-05T04:20:14.506Z,67.13
2018-11-05T04:22:44.600Z,66.87
2018-11-05T04:25:13.870Z,65.80
2018-11-05T04:27:43.349Z,67.43
2018-11-05T04:30:15.063Z,66.33
2018-11-05T04:32:44.364Z,67.97
2018-11-05T04:35:14.079Z,66.67
2018-11-05T04:37:43.362Z,64.93
2018-11-05T04:40:13.273Z,62.50
2018-11-05T04:42:42.599Z,64.20
2018-11-05T04:45:13.055Z,63.63
2018-11-05T04:47:44.016Z,61.80
2018-11-05T04:50:13.952Z,61.23
2018-11-05T04:52:44.090Z,59.40
2018-11-05T04:55:14.371Z,59.17
2018-11-05T04:57:43.632Z,59.23
2018-11-05T05:00:17.952Z,58.20
2018-11-05T05:02:47.192Z,59.43
2018-11-05T05:05:16.938Z,58.40
2018-11-05T05:07:46.218Z,57.53
2018-11-05T05:10:15.521Z,55.83
2018-11-05T05:12:45.040Z,56.93
2018-11-05T05:15:14.400Z,53.20
2018-11-05T05:17:43.724Z,54.50
2018-11-05T05:20:15.541Z,54.50
2018-11-05T05:22:45.197Z,53.63
2018-11-05T05:25:14.535Z,51.30
2018-11-05T05:27:43.843Z,51.53
2018-11-05T05:30:17.091Z,52.20
2018-11-05T05:32:47.682Z,51.80
2018-11-05T05:35:17.673Z,51.53
2018-11-05T05:37:46.958Z,50.47
2018-11-05T05:40:16.253Z,51.43
2018-11-05T05:42:45.587Z,50.87
2018-11-05T05:45:14.873Z,50.13
2018-11-05T05:47:44.135Z,48.97
2018-11-05T05:50:15.525Z,46.93
2018-11-05T05:52:45.934Z,48.77
2018-11-05T05:55:15.327Z,49.47
2018-11-05T05:57:45.050Z,49.53
2018-11-05T06:00:15.790Z,49.93
2018-11-05T06:02:45.093Z,52.07
2018-11-05T06:05:15.094Z,50.47
2018-11-05T06:07:45.041Z,49.90
2018-11-05T06:10:15.364Z,50.77
2018-11-05T06:12:45.314Z,51.20
2018-11-05T06:15:16.430Z,51.20
2018-11-05T06:17:45.766Z,50.67
2018-11-05T06:20:16.999Z,50.90
2018-11-05T06:22:47.093Z,51.73
2018-11-05T06:25:16.679Z,50.13
2018-11-05T06:27:46.127Z,52.80
2018-11-05T06:30:17.735Z,52.37
2018-11-05T06:32:47.795Z,53.70
2018-11-05T06:35:17.199Z,52.47
2018-11-05T06:37:46.493Z,52.90
2018-11-05T06:40:17.500Z,53.67
2018-11-05T06:42:47.144Z,55.20
2018-11-05T06:45:17.821Z,55.97
2018-11-05T06:47:47.468Z,57.73
2018-11-05T06:50:20.360Z,55.57
2018-11-05T06:52:49.771Z,58.43
2018-11-05T06:55:19.168Z,57.73
2018-11-05T06:57:48.592Z,56.60
2018-11-05T07:00:21.011Z,57.87
2018-11-05T07:02:50.303Z,59.07
2018-11-05T07:05:19.616Z,57.67
2018-11-05T07:07:48.963Z,56.33
2018-11-05T07:10:18.727Z,58.67
2018-11-05T07:12:47.998Z,59.73
2018-11-05T07:15:18.460Z,57.97
2018-11-05T07:17:48.683Z,56.97
2018-11-05T07:20:20.478Z,55.13
2018-11-05T07:22:50.561Z,53.37
2018-11-05T07:25:20.470Z,52.70
2018-11-05T07:27:49.802Z,52.53
2018-11-05T07:30:20.288Z,52.23
2018-11-05T07:32:50.630Z,50.67
2018-11-05T07:35:19.943Z,51.47
2018-11-05T07:37:50.419Z,52.27
2018-11-05T07:40:20.365Z,51.07
2018-11-05T07:42:49.649Z,51.00
2018-11-05T07:45:21.251Z,50.33
2018-11-05T07:47:50.641Z,49.57
2018-11-05T07:50:21.543Z,50.47
2018-11-05T07:52:51.400Z,52.57
2018-11-05T07:55:20.940Z,51.23
2018-11-05T07:57:50.905Z,51.13
2018-11-05T08:00:25.515Z,51.87
2018-11-05T08:02:56.057Z,52.33
2018-11-05T08:05:25.582Z,52.77
2018-11-05T08:07:55.116Z,54.17
2018-11-05T08:10:24.420Z,53.30
2018-11-05T08:12:53.705Z,54.30
2018-11-05T08:15:24.122Z,55.93
2018-11-05T08:17:54.062Z,56.07
2018-11-05T08:20:23.322Z,54.90
2018-11-05T08:22:52.634Z,56.73
2018-11-05T08:25:21.912Z,55.17
2018-11-05T08:27:51.940Z,54.20
2018-11-05T08:30:23.375Z,56.50
2018-11-05T08:32:52.729Z,56.03
2018-11-05T08:35:22.628Z,59.60
2018-11-05T08:37:52.733Z,57.97
2018-11-05T08:40:25.293Z,58.10
2018-11-05T08:42:55.311Z,55.10
2018-11-05T08:45:26.110Z,57.57
2018-11-05T08:47:56.308Z,56.03
2018-11-05T08:50:26.017Z,56.40
2018-11-05T08:52:55.285Z,55.20
2018-11-05T08:55:25.826Z,58.23
2018-11-05T08:57:55.134Z,53.43
2018-11-05T09:00:29.816Z,51.97
2018-11-05T09:02:59.212Z,54.07
2018-11-05T09:05:28.533Z,54.33
2018-11-05T09:07:57.933Z,53.93
2018-11-05T09:10:27.462Z,53.17
2018-11-05T09:12:56.535Z,54.60
2018-11-05T09:15:25.856Z,51.20
2018-11-05T09:17:55.142Z,51.07
2018-11-05T09:20:24.505Z,53.30
2018-11-05T09:22:53.979Z,52.40
2018-11-05T09:25:23.249Z,52.57
2018-11-05T09:27:52.527Z,52.30
2018-11-05T09:30:23.802Z,51.47
2018-11-05T09:32:54.170Z,54.10
2018-11-05T09:35:23.456Z,55.00
2018-11-05T09:37:52.801Z,53.87
2018-11-05T09:40:23.362Z,54.47
2018-11-05T09:42:53.079Z,53.90
2018-11-05T09:45:24.574Z,54.10
2018-11-05T09:47:53.840Z,54.00
2018-11-05T09:50:23.179Z,54.17
2018-11-05T09:52:52.500Z,54.07
2018-11-05T09:55:22.059Z,53.47
2018-11-05T09:57:51.292Z,53.03
2018-11-05T10:00:22.737Z,52.70
2018-11-05T10:02:57.457Z,51.73
2018-11-05T10:05:26.771Z,51.60
2018-11-05T10:07:56.025Z,50.97
2018-11-05T10:10:25.405Z,50.73
2018-11-05T10:12:54.613Z,51.43
2018-11-05T10:15:23.851Z,53.03
2018-11-05T10:17:53.167Z,52.13
2018-11-05T10:20:23.872Z,54.00
2018-11-05T10:22:53.263Z,52.83
2018-11-05T10:25:22.625Z,54.33
2018-11-05T10:27:52.877Z,55.40
2018-11-05T10:30:23.732Z,55.07
2018-11-05T10:32:53.049Z,56.33
2018-11-05T10:36:25.193Z,53.97
2018-11-05T10:38:54.492Z,52.20
2018-11-05T10:41:23.843Z,53.27
2018-11-05T10:43:53.197Z,55.03
2018-11-05T10:46:23.330Z,53.83
2018-11-05T10:48:52.496Z,53.30
2018-11-05T10:51:21.867Z,50.57
2018-11-05T10:53:51.186Z,53.20
2018-11-05T10:56:20.524Z,49.87
2018-11-05T10:58:49.763Z,51.90
2018-11-05T11:01:24.377Z,51.03
2018-11-05T11:03:58.920Z,51.20
2018-11-05T11:06:28.136Z,49.80
2018-11-05T11:08:57.384Z,50.00
2018-11-05T11:11:26.650Z,48.60
2018-11-05T11:13:55.915Z,49.83
2018-11-05T11:16:25.314Z,50.40
2018-11-05T11:18:54.586Z,50.77
2018-11-05T11:21:23.911Z,50.10
2018-11-05T11:23:53.173Z,50.33
2018-11-05T11:26:22.440Z,50.60
2018-11-05T11:28:51.802Z,51.20
2018-11-05T11:31:20.972Z,54.80
2018-11-05T11:33:50.225Z,52.50
2018-11-05T11:36:19.925Z,54.93
2018-11-05T11:38:49.311Z,56.73
2018-11-05T11:41:18.568Z,55.23
2018-11-05T11:43:47.850Z,55.97
2018-11-05T11:46:17.416Z,55.93
2018-11-05T11:48:47.391Z,57.50
2018-11-05T11:51:16.916Z,59.60
2018-11-05T11:53:46.234Z,56.57
2018-11-05T11:56:15.568Z,56.83
2018-11-05T11:58:44.828Z,57.30
2018-11-05T12:01:14.885Z,57.97
2018-11-05T12:03:44.183Z,60.40
2018-11-05T12:06:13.401Z,58.83
2018-11-05T12:08:42.755Z,58.50
2018-11-05T12:11:12.073Z,58.37
2018-11-05T12:13:41.389Z,58.80
2018-11-05T12:16:10.673Z,58.27
2018-11-05T12:18:40.091Z,59.40
2018-11-05T12:21:09.373Z,59.90
2018-11-05T12:23:38.639Z,58.40
2018-11-05T12:26:08.058Z,60.97
2018-11-05T12:28:37.328Z,59.97
2018-11-05T12:31:07.518Z,59.27
2018-11-05T12:33:36.791Z,61.63
2018-11-05T12:36:06.617Z,60.17
2018-11-05T12:38:35.986Z,58.77
2018-11-05T12:41:05.231Z,60.40
2018-11-05T12:43:34.494Z,59.03
2018-11-05T12:46:03.779Z,60.07
2018-11-05T12:48:33.039Z,61.43
2018-11-05T12:51:02.304Z,59.17
2018-11-05T12:53:31.621Z,60.90
2018-11-05T12:56:00.896Z,59.83
2018-11-05T12:58:30.196Z,61.13
2018-11-05T13:00:59.600Z,57.43
2018-11-05T13:03:28.877Z,58.80
2018-11-05T13:05:58.160Z,58.67
2018-11-05T13:08:27.455Z,58.97
2018-11-05T13:10:56.712Z,57.37
2018-11-05T13:13:26.058Z,57.07
2018-11-05T13:15:55.976Z,56.07
2018-11-05T13:18:25.622Z,56.67
2018-11-05T13:20:54.913Z,55.43
2018-11-05T13:23:29.512Z,56.17
2018-11-05T13:25:58.857Z,55.60
2018-11-05T13:28:28.435Z,55.30
2018-11-05T13:30:57.625Z,58.40
2018-11-05T13:33:26.856Z,57.40
2018-11-05T13:35:56.122Z,56.27
2018-11-05T13:38:25.441Z,58.40
2018-11-05T13:40:54.662Z,58.07
2018-11-05T13:43:23.954Z,58.67
2018-11-05T13:45:53.622Z,59.43
2018-11-05T13:48:23.102Z,60.87
2018-11-05T13:50:51.816Z,60.87
2018-11-05T13:53:21.200Z,58.13
2018-11-05T13:55:50.497Z,61.57
2018-11-05T13:58:19.946Z,59.93
2018-11-05T14:00:49.249Z,61.43
2018-11-05T14:03:18.508Z,59.30
2018-11-05T14:05:47.886Z,58.23
2018-11-05T14:08:17.090Z,57.93
2018-11-05T14:10:46.434Z,60.03
2018-11-05T14:13:15.742Z,62.00
2018-11-05T14:15:45.182Z,58.73
2018-11-05T14:18:14.538Z,58.53
2018-11-05T14:20:43.930Z,58.33
2018-11-05T14:23:13.198Z,59.77
2018-11-05T14:25:42.623Z,59.63
2018-11-05T14:28:12.320Z,61.37
2018-11-05T14:30:40.985Z,59.10
2018-11-05T14:33:10.249Z,58.10
2018-11-05T14:35:40.278Z,58.60
2018-11-05T14:38:09.622Z,57.03
2018-11-05T14:40:39.254Z,57.97
2018-11-05T14:43:08.625Z,57.23
2018-11-05T14:45:38.021Z,58.47
2018-11-05T14:48:07.411Z,56.10
2018-11-05T14:50:36.810Z,54.73
2018-11-05T14:53:06.027Z,56.90
2018-11-05T14:55:36.077Z,55.07
2018-11-05T14:58:05.810Z,58.37
2018-11-05T15:00:35.175Z,57.80
2018-11-05T15:03:04.748Z,59.47
2018-11-05T15:05:33.989Z,58.57
2018-11-05T15:08:03.275Z,59.07
2018-11-05T15:10:32.568Z,59.60
2018-11-05T15:13:01.924Z,56.57
2018-11-05T15:15:31.201Z,56.67
2018-11-05T15:18:00.561Z,56.07
2018-11-05T15:20:29.971Z,56.03
2018-11-05T15:22:59.160Z,56.30
2018-11-05T15:25:28.539Z,56.30
2018-11-05T15:27:57.815Z,55.57
2018-11-05T15:30:27.090Z,55.27
2018-11-05T15:32:56.485Z,56.37
2018-11-05T15:35:25.710Z,57.00
2018-11-05T15:37:54.977Z,56.40
2018-11-05T15:40:24.474Z,53.73
2018-11-05T15:42:53.929Z,55.70
2018-11-05T15:45:23.211Z,56.47
2018-11-05T15:47:52.562Z,57.83
2018-11-05T15:50:22.695Z,57.60
2018-11-05T15:52:52.415Z,56.97
2018-11-05T15:55:21.405Z,56.87
2018-11-05T15:57:50.688Z,58.43
2018-11-05T16:00:24.246Z,58.13
2018-11-05T16:02:55.716Z,58.00
2018-11-05T16:05:25.063Z,58.37
2018-11-05T16:07:54.344Z,56.57
2018-11-05T16:10:23.867Z,56.93
2018-11-05T16:12:53.155Z,57.20
2018-11-05T16:15:22.976Z,57.47
2018-11-05T16:17:52.265Z,55.57
2018-11-05T16:20:23.233Z,55.07
2018-11-05T16:22:53.015Z,57.30
2018-11-05T16:25:22.842Z,55.53
2018-11-05T16:27:52.127Z,56.20
2018-11-05T16:30:22.093Z,55.50
2018-11-05T16:32:52.043Z,57.17
2018-11-05T16:35:21.413Z,54.17
2018-11-05T16:37:50.634Z,57.23
2018-11-05T16:40:20.317Z,53.23
2018-11-05T16:42:50.815Z,52.50
2018-11-05T16:45:20.235Z,54.00
2018-11-05T16:47:49.909Z,54.00
2018-11-05T16:50:27.720Z,54.17
2018-11-05T16:52:57.130Z,54.63
2018-11-05T16:55:26.434Z,55.53
2018-11-05T16:57:55.756Z,55.20
2018-11-05T17:00:24.955Z,56.30
2018-11-05T17:02:54.404Z,55.60
2018-11-05T17:05:23.598Z,56.67
2018-11-05T17:07:52.944Z,54.90
2018-11-05T17:10:22.367Z,52.20
2018-11-05T17:12:51.615Z,52.00
2018-11-05T17:15:20.866Z,49.87
2018-11-05T17:17:50.209Z,50.30
2018-11-05T17:20:20.250Z,49.93
2018-11-05T17:22:49.528Z,49.03
2018-11-05T17:25:21.756Z,50.37
2018-11-05T17:27:51.039Z,49.27
2018-11-05T17:30:21.539Z,52.93
2018-11-05T17:32:51.042Z,54.17
2018-11-05T17:35:20.488Z,54.33
2018-11-05T17:37:50.070Z,54.10
2018-11-05T17:40:21.046Z,56.23
2018-11-05T17:42:50.272Z,53.93
2018-11-05T17:45:20.182Z,53.30
2018-11-05T17:47:49.730Z,55.77
2018-11-05T17:50:20.410Z,54.93
2018-11-05T17:52:49.812Z,52.37
2018-11-05T17:55:19.174Z,55.23
2018-11-05T17:57:49.125Z,54.57
2018-11-05T18:00:20.628Z,53.97
2018-11-05T18:02:50.685Z,53.30
2018-11-05T18:05:20.239Z,54.03
2018-11-05T18:07:49.523Z,52.77
2018-11-05T18:10:18.984Z,54.17
2018-11-05T18:12:48.280Z,54.23
2018-11-05T18:15:17.668Z,54.20
2018-11-05T18:17:47.794Z,55.57
2018-11-05T18:20:17.833Z,53.70
2018-11-05T18:22:47.110Z,54.30
2018-11-05T18:25:17.583Z,54.87
2018-11-05T18:27:47.125Z,56.17
2018-11-05T18:30:17.175Z,56.50
2018-11-05T18:32:46.480Z,55.17
2018-11-05T18:35:16.161Z,53.47
2018-11-05T18:37:47.126Z,55.27
2018-11-05T18:40:16.947Z,56.50
2018-11-05T18:42:46.342Z,56.27
2018-11-05T18:45:15.731Z,57.57
2018-11-05T18:47:46.060Z,57.17
2018-11-05T18:50:16.176Z,55.50
2018-11-05T18:52:45.778Z,56.07
2018-11-05T18:55:16.295Z,55.47
2018-11-05T18:57:45.652Z,56.63
2018-11-05T19:00:19.577Z,57.23
2018-11-05T19:02:49.430Z,56.73
2018-11-05T19:05:19.208Z,56.33
2018-11-05T19:07:48.720Z,53.93
2018-11-05T19:10:18.196Z,56.27
2018-11-05T19:12:47.976Z,55.53
2018-11-05T19:15:17.672Z,52.50
2018-11-05T19:17:47.666Z,53.23
2018-11-05T19:20:17.136Z,53.67
2018-11-05T19:22:46.592Z,52.27
2018-11-05T19:25:16.582Z,52.23
2018-11-05T19:27:45.842Z,51.83
2018-11-05T19:30:19.904Z,51.70
2018-11-05T19:32:49.107Z,50.90
2018-11-05T19:35:18.444Z,49.00
2018-11-05T19:37:47.814Z,49.63
2018-11-05T19:40:17.849Z,50.17
2018-11-05T19:42:47.885Z,50.77
2018-11-05T19:45:18.304Z,52.33
2018-11-05T19:47:47.683Z,51.40
2018-11-05T19:50:18.833Z,52.13
2018-11-05T19:52:49.148Z,52.33
2018-11-05T19:55:19.019Z,52.83
2018-11-05T19:57:48.827Z,50.80
2018-11-05T20:00:23.644Z,50.53
2018-11-05T20:02:53.303Z,51.87
2018-11-05T20:05:22.665Z,51.03
2018-11-05T20:07:52.584Z,52.40
2018-11-05T20:10:21.950Z,50.87
2018-11-05T20:12:51.310Z,52.13
2018-11-05T20:15:20.574Z,51.50
2018-11-05T20:17:50.978Z,52.23
2018-11-05T20:20:22.137Z,51.10
2018-11-05T20:22:51.533Z,52.17
2018-11-05T20:25:20.804Z,53.80
2018-11-05T20:27:50.056Z,51.87
2018-11-05T20:30:21.663Z,53.60
2018-11-05T20:32:52.094Z,53.30
2018-11-05T20:35:21.123Z,52.87
2018-11-05T20:37:50.449Z,55.43
2018-11-05T20:40:20.825Z,55.00
2018-11-05T20:42:50.962Z,55.53
2018-11-05T20:45:21.203Z,54.67
2018-11-05T20:47:50.539Z,54.83
2018-11-05T20:50:19.881Z,54.83
2018-11-05T20:52:49.198Z,55.13
2018-11-05T20:55:18.703Z,56.17
2018-11-05T20:57:48.181Z,55.60
2018-11-05T21:00:18.931Z,54.13
2018-11-05T21:02:48.208Z,56.07
2018-11-05T21:05:18.150Z,54.13
2018-11-05T21:07:47.436Z,54.67
2018-11-05T21:10:16.683Z,52.40
2018-11-05T21:12:45.931Z,53.80
2018-11-05T21:15:18.432Z,53.80
2018-11-05T21:17:48.512Z,53.73
2018-11-05T21:20:17.820Z,52.73
2018-11-05T21:22:47.870Z,54.17
2018-11-05T21:25:17.737Z,52.63
2018-11-05T21:27:47.097Z,53.17
2018-11-05T21:30:18.227Z,53.60
2018-11-05T21:32:47.513Z,53.73
2018-11-05T21:35:18.228Z,52.07
2018-11-05T21:37:47.517Z,53.67
2018-11-05T21:40:17.675Z,51.30
2018-11-05T21:42:46.928Z,53.27
2018-11-05T21:45:16.660Z,54.67
2018-11-05T21:47:46.384Z,55.47
2018-11-05T21:50:18.533Z,53.93
2018-11-05T21:52:48.404Z,53.77
2018-11-05T21:55:17.719Z,54.33
2018-11-05T21:57:48.274Z,53.93
2018-11-05T22:00:19.431Z,54.50
2018-11-05T22:02:53.963Z,53.00
2018-11-05T22:05:23.232Z,54.13
2018-11-05T22:07:52.520Z,53.40
2018-11-05T22:10:21.769Z,51.97
2018-11-05T22:12:50.994Z,52.40
2018-11-05T22:15:20.330Z,52.73
2018-11-05T22:17:49.601Z,51.43
2018-11-05T22:20:18.932Z,53.70
2018-11-05T22:22:48.271Z,53.30
2018-11-05T22:25:18.044Z,53.83
2018-11-05T22:27:47.325Z,53.33
2018-11-05T22:30:16.580Z,53.93
2018-11-05T22:32:45.832Z,52.67
2018-11-05T22:35:15.131Z,55.07
2018-11-05T22:37:44.493Z,53.33
2018-11-05T22:40:14.691Z,52.70
2018-11-05T22:42:43.940Z,55.97
2018-11-05T22:45:14.412Z,53.93
2018-11-05T22:47:44.441Z,53.30
2018-11-05T22:50:13.777Z,56.23
2018-11-05T22:52:43.368Z,54.33
2018-11-05T22:55:13.164Z,54.83
2018-11-05T22:57:42.438Z,54.37
2018-11-05T23:00:22.048Z,52.33
2018-11-05T23:02:56.497Z,55.83
2018-11-05T23:05:26.076Z,50.63
2018-11-05T23:07:56.243Z,53.63
2018-11-05T23:10:25.535Z,52.33
2018-11-05T23:12:54.852Z,53.67
2018-11-05T23:15:24.106Z,55.07
2018-11-05T23:17:53.462Z,56.80
2018-11-05T23:20:22.721Z,57.47
2018-11-05T23:22:51.974Z,57.17
2018-11-05T23:25:21.303Z,57.13
2018-11-05T23:27:50.606Z,56.87
2018-11-05T23:30:19.985Z,57.07
2018-11-05T23:32:49.293Z,56.10
2018-11-05T23:35:18.602Z,56.07
2018-11-05T23:37:47.864Z,57.13
2018-11-05T23:40:17.140Z,56.87
2018-11-05T23:42:46.475Z,58.87
2018-11-05T23:45:16.644Z,57.73
2018-11-05T23:47:45.906Z,58.77
2018-11-05T23:50:15.143Z,57.37
2018-11-05T23:52:44.387Z,58.47
2018-11-05T23:55:14.381Z,58.37
2018-11-05T23:57:43.645Z,57.50
